Time;durP1;ratioP1;P1;durP2;ratioP2;P2;SDS_P1;SDS_P2;PMS_P1;PMS_P2;Temp;Humidity;BMP_temperature;BMP_pressure;BME280_temperature;BME280_humidity;BME280_pressure;Samples;Min_cycle;Max_cycle;Signal;HPM_P1;HPM_P2
2023/03/05 00:00:50;;;;;;;0.20;0.20;;;2.70;99.90;;;;;;5053666;28;20074;-74
2023/03/05 00:03:15;;;;;;;0.20;0.20;;;2.80;99.90;;;;;;5053722;28;20082;-74
2023/03/05 00:05:41;;;;;;;0.22;0.22;;;2.80;99.90;;;;;;5035799;28;20029;-74
2023/03/05 00:08:06;;;;;;;0.20;0.20;;;2.90;99.90;;;;;;5035808;28;20032;-74
2023/03/05 00:10:32;;;;;;;0.20;0.20;;;2.90;99.90;;;;;;5053459;28;20032;-74
2023/03/05 00:12:57;;;;;;;0.30;0.30;;;2.90;99.90;;;;;;5053295;28;20029;-74
2023/03/05 00:15:23;;;;;;;0.20;0.20;;;3.00;99.90;;;;;;5053720;28;20029;-74
2023/03/05 00:17:48;;;;;;;0.30;0.30;;;2.90;99.90;;;;;;5053557;28;20386;-74
2023/03/05 00:20:14;;;;;;;0.20;0.20;;;2.90;99.90;;;;;;5053423;28;20025;-74
2023/03/05 00:22:40;;;;;;;0.20;0.20;;;2.80;99.90;;;;;;5035495;28;20513;-74
2023/03/05 00:25:06;;;;;;;0.20;0.20;;;2.70;99.90;;;;;;5035660;28;20079;-74
2023/03/05 00:27:31;;;;;;;0.13;0.13;;;2.70;99.90;;;;;;5053280;28;20479;-74
2023/03/05 00:29:57;;;;;;;0.25;0.25;;;2.60;99.90;;;;;;5053412;28;20103;-74
2023/03/05 00:32:22;;;;;;;0.20;0.20;;;2.50;99.90;;;;;;5053371;28;20052;-74
2023/03/05 00:34:48;;;;;;;0.22;0.22;;;2.40;99.90;;;;;;5035538;28;20029;-74
2023/03/05 00:37:14;;;;;;;0.20;0.20;;;2.40;99.90;;;;;;5053451;28;20029;-74
2023/03/05 00:39:40;;;;;;;0.30;0.30;;;2.50;99.90;;;;;;5053074;28;20387;-74
2023/03/05 00:42:06;;;;;;;0.28;0.28;;;2.50;99.90;;;;;;5053472;28;20045;-74
2023/03/05 00:44:32;;;;;;;0.20;0.20;;;2.60;99.90;;;;;;5053324;28;20084;-74
2023/03/05 00:46:57;;;;;;;0.30;0.30;;;2.70;99.90;;;;;;5053225;28;20494;-74
2023/03/05 00:49:23;;;;;;;0.20;0.20;;;2.70;99.90;;;;;;5035397;28;20048;-74
2023/03/05 00:51:49;;;;;;;0.20;0.20;;;2.70;99.90;;;;;;5053280;28;20021;-74
2023/03/05 00:54:14;;;;;;;0.20;0.20;;;2.70;99.90;;;;;;5055269;28;20078;-74
2023/03/05 00:56:40;;;;;;;0.10;0.10;;;2.80;99.90;;;;;;5038824;28;20029;-74
2023/03/05 00:59:05;;;;;;;0.30;0.30;;;2.80;99.90;;;;;;5057647;28;20029;-74
2023/03/05 01:01:31;;;;;;;0.20;0.20;;;2.80;99.90;;;;;;5056855;28;20056;-74
2023/03/05 01:03:58;;;;;;;0.20;0.20;;;2.80;99.90;;;;;;5038758;28;20490;-74
2023/03/05 01:06:24;;;;;;;0.20;0.20;;;2.80;99.90;;;;;;5057230;28;20390;-74
2023/03/05 01:08:49;;;;;;;0.20;0.20;;;2.80;99.90;;;;;;5056777;28;20103;-74
2023/03/05 01:11:15;;;;;;;0.30;0.30;;;2.80;99.90;;;;;;5038451;28;20021;-74
2023/03/05 01:13:41;;;;;;;0.30;0.30;;;2.70;99.90;;;;;;5056616;28;20474;-74
2023/03/05 01:16:07;;;;;;;0.28;0.28;;;2.70;99.90;;;;;;5057347;28;20021;-74
2023/03/05 01:18:33;;;;;;;0.10;0.10;;;2.70;99.90;;;;;;5056450;28;20037;-74
2023/03/05 01:20:58;;;;;;;0.20;0.20;;;2.60;99.90;;;;;;5056571;28;20104;-74
2023/03/05 01:23:24;;;;;;;0.20;0.20;;;2.60;99.90;;;;;;5039215;28;20074;-74
2023/03/05 01:25:58;;;;;;;0.20;0.20;;;2.60;99.90;;;;;;5056337;28;20032;-74
2023/03/05 01:28:24;;;;;;;0.30;0.30;;;2.60;99.90;;;;;;5039317;28;20032;-74
2023/03/05 01:30:49;;;;;;;0.20;0.20;;;2.60;99.90;;;;;;5056536;28;20026;-74
2023/03/05 01:33:15;;;;;;;0.20;0.20;;;2.60;99.90;;;;;;5037936;28;20025;-74
2023/03/05 01:35:41;;;;;;;0.20;0.20;;;2.60;99.90;;;;;;5038174;28;20024;-74
2023/03/05 01:38:06;;;;;;;0.13;0.13;;;2.60;99.90;;;;;;5055923;28;20036;-74
2023/03/05 01:40:32;;;;;;;0.20;0.20;;;2.40;99.90;;;;;;5037895;28;20025;-74
2023/03/05 01:43:19;;;;;;;0.15;0.15;;;2.20;99.90;;;;;;5055827;28;20029;-74
2023/03/05 01:46:23;;;;;;;0.20;0.20;;;2.00;99.90;;;;;;5055920;28;20033;-74
2023/03/05 01:49:09;;;;;;;0.30;0.30;;;1.80;99.90;;;;;;5055889;28;20478;-74
2023/03/05 01:51:39;;;;;;;0.20;0.20;;;1.60;99.90;;;;;;5055856;28;20545;-74
2023/03/05 01:54:06;;;;;;;0.20;0.20;;;1.50;99.90;;;;;;5037888;28;20032;-74
2023/03/05 01:56:33;;;;;;;0.15;0.15;;;1.40;99.90;;;;;;5055569;28;20037;-74
2023/03/05 01:59:02;;;;;;;0.20;0.20;;;1.40;99.90;;;;;;5055445;28;20029;-74
2023/03/05 02:01:35;;;;;;;0.20;0.20;;;1.30;99.90;;;;;;5055570;28;20059;-74
2023/03/05 02:04:01;;;;;;;0.20;0.20;;;1.30;99.90;;;;;;5038025;28;20060;-74
2023/03/05 02:06:27;;;;;;;0.17;0.17;;;1.30;99.90;;;;;;5036231;28;20512;-74
2023/03/05 02:08:53;;;;;;;0.20;0.20;;;1.30;99.90;;;;;;5055536;28;20025;-74
2023/03/05 02:11:19;;;;;;;0.20;0.20;;;1.20;99.90;;;;;;5037150;28;20017;-74
2023/03/05 02:13:45;;;;;;;0.20;0.20;;;1.20;99.90;;;;;;5055309;28;20025;-74
2023/03/05 02:16:10;;;;;;;0.20;0.20;;;1.20;99.90;;;;;;5055094;28;20520;-74
2023/03/05 02:18:36;;;;;;;0.20;0.20;;;1.20;99.90;;;;;;5037268;28;20071;-74
2023/03/05 02:21:06;;;;;;;0.20;0.20;;;1.30;99.90;;;;;;5037398;28;20021;-74
2023/03/05 02:23:37;;;;;;;0.30;0.30;;;1.20;99.90;;;;;;5037702;28;20029;-74
2023/03/05 02:26:08;;;;;;;0.20;0.20;;;1.20;99.90;;;;;;5037482;28;20483;-74
2023/03/05 02:28:45;;;;;;;0.28;0.28;;;1.20;99.90;;;;;;5037172;28;20029;-74
2023/03/05 02:31:17;;;;;;;0.20;0.20;;;1.10;99.90;;;;;;5054980;28;20491;-74
2023/03/05 02:33:43;;;;;;;0.20;0.20;;;1.10;99.90;;;;;;5037147;28;20024;-74
2023/03/05 02:36:10;;;;;;;0.20;0.20;;;1.10;99.90;;;;;;5037092;28;20025;-74
2023/03/05 02:38:37;;;;;;;0.20;0.20;;;1.10;99.90;;;;;;5055053;28;20023;-74
2023/03/05 02:41:02;;;;;;;0.20;0.20;;;1.20;99.90;;;;;;5055119;28;20047;-74
2023/03/05 02:43:28;;;;;;;0.20;0.20;;;1.20;99.90;;;;;;5054923;28;20029;-74
2023/03/05 02:45:53;;;;;;;0.20;0.20;;;1.20;99.90;;;;;;5037221;28;20075;-74
2023/03/05 02:48:19;;;;;;;0.20;0.20;;;1.20;99.90;;;;;;5036897;28;20052;-74
2023/03/05 02:50:46;;;;;;;0.20;0.20;;;1.20;99.90;;;;;;5055320;28;20083;-74
2023/03/05 02:53:11;;;;;;;0.22;0.22;;;1.20;99.90;;;;;;5036721;28;20392;-74
2023/03/05 02:55:37;;;;;;;0.20;0.20;;;1.20;99.90;;;;;;5054769;28;20066;-74
2023/03/05 02:58:02;;;;;;;0.30;0.30;;;1.30;99.90;;;;;;5054617;28;20025;-74
2023/03/05 03:00:28;;;;;;;0.20;0.20;;;1.20;99.90;;;;;;5054435;28;20021;-74
2023/03/05 03:02:53;;;;;;;0.20;0.20;;;1.20;99.90;;;;;;5054580;28;20398;-74
2023/03/05 03:05:19;;;;;;;0.20;0.20;;;1.20;99.90;;;;;;5036503;28;20021;-74
2023/03/05 03:07:45;;;;;;;0.20;0.20;;;1.20;99.90;;;;;;5054348;28;20025;-74
2023/03/05 03:10:11;;;;;;;0.20;0.20;;;1.10;99.90;;;;;;5036720;28;20021;-74
2023/03/05 03:12:41;;;;;;;0.20;0.20;;;1.20;99.90;;;;;;5036516;28;20032;-74
2023/03/05 03:15:09;;;;;;;0.20;0.20;;;1.20;99.90;;;;;;5054447;28;20028;-74
2023/03/05 03:17:35;;;;;;;0.20;0.20;;;1.20;99.90;;;;;;5053881;28;20025;-73
2023/03/05 03:20:02;;;;;;;0.10;0.10;;;1.20;99.90;;;;;;5054788;28;20108;-73
2023/03/05 03:22:28;;;;;;;0.20;0.20;;;1.30;99.90;;;;;;5054477;28;20494;-73
2023/03/05 03:24:54;;;;;;;0.10;0.10;;;1.30;99.90;;;;;;5054671;28;20033;-73
2023/03/05 03:27:20;;;;;;;0.28;0.28;;;1.30;99.90;;;;;;5055022;28;20086;-74
2023/03/05 03:29:46;;;;;;;0.20;0.20;;;1.40;99.90;;;;;;5036345;28;20025;-74
2023/03/05 03:32:11;;;;;;;0.20;0.20;;;1.40;99.90;;;;;;5036189;28;20501;-74
2023/03/05 03:34:37;;;;;;;0.20;0.20;;;1.40;99.90;;;;;;5036188;28;20082;-74
2023/03/05 03:37:02;;;;;;;0.10;0.10;;;1.50;99.90;;;;;;5054067;28;20110;-74
2023/03/05 03:39:28;;;;;;;0.20;0.20;;;1.50;99.90;;;;;;5035873;28;20032;-74
2023/03/05 03:41:55;;;;;;;0.20;0.20;;;1.40;99.90;;;;;;5076410;23;20044;-75
2023/03/05 03:44:20;;;;;;;0.10;0.10;;;1.50;99.90;;;;;;5053248;28;20060;-74
2023/03/05 03:46:48;;;;;;;0.20;0.20;;;1.50;99.90;;;;;;5053237;28;20056;-74
2023/03/05 03:49:17;;;;;;;0.20;0.20;;;1.40;99.90;;;;;;5053121;28;20032;-74
2023/03/05 03:51:42;;;;;;;0.30;0.30;;;1.40;99.90;;;;;;5053316;28;20028;-74
2023/03/05 03:54:08;;;;;;;0.20;0.20;;;1.50;99.90;;;;;;5053114;28;20396;-74
2023/03/05 03:56:33;;;;;;;0.10;0.10;;;1.50;99.90;;;;;;5053189;28;20505;-74
2023/03/05 03:58:59;;;;;;;0.30;0.30;;;1.50;99.90;;;;;;5053034;28;20032;-74
2023/03/05 04:01:24;;;;;;;0.20;0.20;;;1.50;99.90;;;;;;5035142;28;20029;-74
2023/03/05 04:03:50;;;;;;;0.20;0.20;;;1.50;99.90;;;;;;5035059;28;20031;-74
2023/03/05 04:06:15;;;;;;;0.10;0.10;;;1.50;99.90;;;;;;5052901;28;20501;-74
2023/03/05 04:08:41;;;;;;;0.30;0.30;;;1.60;99.90;;;;;;5052970;28;20021;-74
2023/03/05 04:11:07;;;;;;;0.28;0.28;;;1.70;99.90;;;;;;5052954;28;20029;-74
2023/03/05 04:13:32;;;;;;;0.22;0.22;;;1.80;99.90;;;;;;5052822;28;20029;-74
2023/03/05 04:15:58;;;;;;;0.20;0.20;;;1.80;99.90;;;;;;5052889;28;20124;-74
2023/03/05 04:18:24;;;;;;;0.20;0.20;;;1.80;99.90;;;;;;5053149;28;20067;-74
2023/03/05 04:20:49;;;;;;;0.20;0.20;;;1.80;99.90;;;;;;5052809;28;20039;-74
2023/03/05 04:23:15;;;;;;;0.20;0.20;;;1.80;99.90;;;;;;5034878;28;20025;-74
2023/03/05 04:25:41;;;;;;;0.28;0.28;;;1.80;99.90;;;;;;5052731;28;20025;-74
2023/03/05 04:28:06;;;;;;;0.22;0.22;;;1.80;99.90;;;;;;5034947;28;20024;-74
2023/03/05 04:30:32;;;;;;;0.20;0.20;;;1.80;99.90;;;;;;5056633;28;20029;-74
2023/03/05 04:32:58;;;;;;;0.20;0.20;;;1.80;99.90;;;;;;5056687;28;20108;-74
2023/03/05 04:35:24;;;;;;;0.20;0.20;;;1.80;99.90;;;;;;5056708;28;20024;-74
2023/03/05 04:37:49;;;;;;;0.30;0.30;;;1.90;99.90;;;;;;5056663;28;20025;-74
2023/03/05 04:40:16;;;;;;;0.20;0.20;;;2.00;99.90;;;;;;5038733;28;20112;-74
2023/03/05 04:42:42;;;;;;;0.30;0.30;;;2.00;99.90;;;;;;5056551;28;20083;-74
2023/03/05 04:45:08;;;;;;;0.20;0.20;;;2.10;99.90;;;;;;5056517;28;20032;-74
2023/03/05 04:47:34;;;;;;;0.15;0.15;;;2.20;99.90;;;;;;5056411;28;20032;-74
2023/03/05 04:50:00;;;;;;;0.20;0.20;;;2.20;99.90;;;;;;5056426;28;20021;-74
2023/03/05 04:52:25;;;;;;;0.20;0.20;;;2.10;99.90;;;;;;5038437;28;20461;-74
2023/03/05 04:54:51;;;;;;;0.20;0.20;;;2.10;99.90;;;;;;5056357;28;20032;-74
2023/03/05 04:57:16;;;;;;;0.20;0.20;;;2.10;99.90;;;;;;5056339;28;20060;-74
2023/03/05 04:59:42;;;;;;;0.20;0.20;;;2.00;99.90;;;;;;5056260;28;20078;-74
2023/03/05 05:02:07;;;;;;;0.20;0.20;;;1.90;99.90;;;;;;5056182;28;20106;-74
2023/03/05 05:04:34;;;;;;;0.20;0.20;;;1.90;99.90;;;;;;5056145;28;20033;-74
2023/03/05 05:07:01;;;;;;;0.20;0.20;;;1.80;99.90;;;;;;5056028;28;20028;-74
2023/03/05 05:09:26;;;;;;;0.20;0.20;;;1.80;99.90;;;;;;5038227;28;20021;-74
2023/03/05 05:11:53;;;;;;;0.20;0.20;;;1.70;99.90;;;;;;5056276;28;20397;-74
2023/03/05 05:14:18;;;;;;;0.20;0.20;;;1.70;99.90;;;;;;5055988;28;20095;-74
2023/03/05 05:16:44;;;;;;;0.20;0.20;;;1.60;99.90;;;;;;5055970;28;20100;-74
2023/03/05 05:19:10;;;;;;;0.20;0.20;;;1.60;99.90;;;;;;5056154;28;20466;-74
2023/03/05 05:21:36;;;;;;;0.20;0.20;;;1.60;99.90;;;;;;5056117;28;20033;-74
2023/03/05 05:24:01;;;;;;;0.10;0.10;;;1.60;99.90;;;;;;5055817;28;20037;-74
2023/03/05 05:26:27;;;;;;;0.22;0.22;;;1.60;99.90;;;;;;5055682;28;20037;-74
2023/03/05 05:28:53;;;;;;;0.20;0.20;;;1.50;99.90;;;;;;5056008;28;20095;-74
2023/03/05 05:31:19;;;;;;;0.20;0.20;;;1.50;99.90;;;;;;5056240;28;20051;-74
2023/03/05 05:33:45;;;;;;;0.20;0.20;;;1.40;99.90;;;;;;5055567;28;20025;-74
2023/03/05 05:36:13;;;;;;;0.20;0.20;;;1.30;99.90;;;;;;5037704;28;20123;-74
2023/03/05 05:38:40;;;;;;;0.20;0.20;;;1.30;99.90;;;;;;5055514;28;20079;-74
2023/03/05 05:41:09;;;;;;;0.20;0.20;;;1.20;99.90;;;;;;5055331;28;20029;-74
2023/03/05 05:43:35;;;;;;;0.10;0.10;;;1.10;99.90;;;;;;5055237;28;20033;-74
2023/03/05 05:46:03;;;;;;;0.20;0.20;;;0.90;99.90;;;;;;5037402;28;20025;-74
2023/03/05 05:48:30;;;;;;;0.20;0.20;;;0.90;99.90;;;;;;5055289;28;20106;-74
2023/03/05 05:50:56;;;;;;;0.20;0.20;;;0.90;99.90;;;;;;5037456;28;20040;-74
2023/03/05 05:53:23;;;;;;;0.20;0.20;;;0.80;99.90;;;;;;5055178;28;20489;-74
2023/03/05 05:55:49;;;;;;;0.30;0.30;;;0.80;99.90;;;;;;5055219;28;20497;-74
2023/03/05 05:58:14;;;;;;;0.20;0.20;;;0.70;99.90;;;;;;5055150;28;20021;-74
2023/03/05 06:00:40;;;;;;;0.20;0.20;;;0.70;99.90;;;;;;5055123;28;20021;-74
2023/03/05 06:03:06;;;;;;;0.20;0.20;;;0.70;99.90;;;;;;5055910;28;20060;-74
2023/03/05 06:05:32;;;;;;;0.20;0.20;;;0.80;99.90;;;;;;5037136;28;20036;-74
2023/03/05 06:07:58;;;;;;;0.20;0.20;;;0.80;99.90;;;;;;5054877;28;20368;-74
2023/03/05 06:10:23;;;;;;;0.30;0.30;;;0.80;99.90;;;;;;5054913;28;20032;-74
2023/03/05 06:12:49;;;;;;;0.20;0.20;;;0.80;99.90;;;;;;5037180;28;20068;-74
2023/03/05 06:15:15;;;;;;;0.20;0.20;;;0.90;99.90;;;;;;5055120;28;20079;-74
2023/03/05 06:17:40;;;;;;;0.20;0.20;;;0.90;99.90;;;;;;5054777;28;20087;-74
2023/03/05 06:20:07;;;;;;;0.20;0.20;;;1.00;99.90;;;;;;5054789;28;20052;-74
2023/03/05 06:22:37;;;;;;;0.20;0.20;;;1.00;99.90;;;;;;5054654;28;20032;-74
2023/03/05 06:25:03;;;;;;;0.20;0.20;;;1.00;99.90;;;;;;5054620;28;20028;-74
2023/03/05 06:27:29;;;;;;;0.15;0.15;;;1.10;99.90;;;;;;5054469;28;20037;-74
2023/03/05 06:29:55;;;;;;;0.20;0.20;;;1.20;99.90;;;;;;5054820;28;20021;-74
2023/03/05 06:32:21;;;;;;;0.20;0.20;;;1.30;99.90;;;;;;5054989;28;20031;-74
2023/03/05 06:34:47;;;;;;;0.20;0.20;;;1.30;99.90;;;;;;5054739;28;20021;-74
2023/03/05 06:37:13;;;;;;;0.20;0.20;;;1.40;99.90;;;;;;5036565;28;20027;-74
2023/03/05 06:39:38;;;;;;;0.20;0.20;;;1.40;99.90;;;;;;5054383;28;20036;-74
2023/03/05 06:42:04;;;;;;;0.30;0.30;;;1.50;99.90;;;;;;5054166;28;20032;-74
2023/03/05 06:44:29;;;;;;;0.20;0.20;;;1.50;99.90;;;;;;5054560;28;20033;-74
2023/03/05 06:46:55;;;;;;;0.13;0.13;;;1.50;99.90;;;;;;5054315;28;20080;-74
2023/03/05 06:49:20;;;;;;;0.20;0.20;;;1.50;99.90;;;;;;5036371;28;20024;-74
2023/03/05 06:51:46;;;;;;;0.20;0.20;;;1.50;99.90;;;;;;5035683;28;20387;-74
2023/03/05 06:54:14;;;;;;;0.20;0.20;;;1.50;99.90;;;;;;5054402;28;20032;-74
2023/03/05 06:56:42;;;;;;;0.20;0.20;;;1.60;99.90;;;;;;5054066;28;20055;-74
2023/03/05 06:59:09;;;;;;;0.20;0.20;;;1.60;99.90;;;;;;5054030;28;20064;-74
2023/03/05 07:01:35;;;;;;;0.20;0.20;;;1.60;99.90;;;;;;5053951;28;20174;-74
2023/03/05 07:04:01;;;;;;;0.15;0.15;;;1.60;99.90;;;;;;5053833;28;20055;-74
2023/03/05 07:06:28;;;;;;;0.13;0.13;;;1.60;99.90;;;;;;5053806;28;20032;-74
2023/03/05 07:08:57;;;;;;;0.20;0.20;;;1.60;99.90;;;;;;5053859;28;20021;-74
2023/03/05 07:11:24;;;;;;;0.10;0.10;;;1.70;99.90;;;;;;5054055;28;20017;-74
2023/03/05 07:13:50;;;;;;;0.20;0.20;;;1.70;99.90;;;;;;5053653;28;20029;-74
2023/03/05 07:16:21;;;;;;;0.20;0.20;;;1.70;99.90;;;;;;5053972;28;20040;-74
2023/03/05 07:18:47;;;;;;;0.20;0.20;;;1.80;99.90;;;;;;5053947;28;20074;-74
2023/03/05 07:21:23;;;;;;;0.15;0.15;;;1.80;99.90;;;;;;5053584;28;20104;-74
2023/03/05 07:23:49;;;;;;;0.20;0.20;;;1.90;99.90;;;;;;5053830;28;20017;-74
2023/03/05 07:26:15;;;;;;;0.20;0.20;;;2.00;99.90;;;;;;5053741;28;20083;-74
2023/03/05 07:28:42;;;;;;;0.20;0.20;;;2.10;99.90;;;;;;5053480;28;20486;-74
2023/03/05 07:31:12;;;;;;;0.20;0.20;;;2.10;99.90;;;;;;5035607;28;20116;-74
2023/03/05 07:33:37;;;;;;;0.20;0.20;;;2.20;99.90;;;;;;5053330;28;20021;-74
2023/03/05 07:36:06;;;;;;;0.20;0.20;;;2.30;99.90;;;;;;5053921;28;20116;-74
2023/03/05 07:38:31;;;;;;;0.20;0.20;;;2.30;99.90;;;;;;5053329;28;20025;-74
2023/03/05 07:41:05;;;;;;;0.20;0.20;;;2.20;99.90;;;;;;5053324;28;20394;-74
2023/03/05 07:43:31;;;;;;;0.17;0.17;;;2.30;99.90;;;;;;5053150;28;20040;-74
2023/03/05 07:45:57;;;;;;;0.10;0.10;;;2.30;99.90;;;;;;5053383;28;20024;-74
2023/03/05 07:48:23;;;;;;;0.30;0.30;;;2.30;99.90;;;;;;5053173;28;20021;-74
2023/03/05 07:50:49;;;;;;;0.20;0.20;;;2.30;99.90;;;;;;5035462;28;20446;-74
2023/03/05 07:53:15;;;;;;;0.10;0.10;;;2.30;99.90;;;;;;5053622;28;20056;-74
2023/03/05 07:55:45;;;;;;;0.20;0.20;;;2.30;99.90;;;;;;5035256;28;20025;-74
2023/03/05 07:58:12;;;;;;;0.20;0.20;;;2.60;99.90;;;;;;5053235;28;20021;-74
2023/03/05 08:00:38;;;;;;;0.20;0.20;;;2.90;99.90;;;;;;5035221;28;20028;-74
2023/03/05 08:03:04;;;;;;;0.20;0.20;;;3.00;99.90;;;;;;5052159;28;20152;-74
2023/03/05 08:05:29;;;;;;;0.17;0.17;;;3.10;99.90;;;;;;5053149;28;20491;-74
2023/03/05 08:07:55;;;;;;;0.20;0.20;;;3.30;99.90;;;;;;5052907;28;20048;-74
2023/03/05 08:10:20;;;;;;;0.20;0.20;;;3.30;99.90;;;;;;5052956;28;20501;-74
2023/03/05 08:12:46;;;;;;;0.20;0.20;;;3.30;99.90;;;;;;5052850;28;20028;-74
2023/03/05 08:15:11;;;;;;;0.28;0.28;;;3.10;99.90;;;;;;5052898;28;20060;-74
2023/03/05 08:17:37;;;;;;;0.20;0.20;;;2.90;99.90;;;;;;5052908;28;20431;-74
2023/03/05 08:20:10;;;;;;;0.20;0.20;;;2.50;99.90;;;;;;5053134;28;20501;-74
2023/03/05 08:22:36;;;;;;;0.20;0.20;;;2.50;99.90;;;;;;5053143;28;20029;-74
2023/03/05 08:25:03;;;;;;;0.15;0.15;;;2.30;99.90;;;;;;5053085;28;20359;-74
2023/03/05 08:27:29;;;;;;;0.20;0.20;;;2.10;99.90;;;;;;5052675;28;20040;-74
2023/03/05 08:29:55;;;;;;;0.30;0.30;;;2.00;99.90;;;;;;5052798;28;20029;-74
2023/03/05 08:32:20;;;;;;;0.10;0.10;;;1.90;99.90;;;;;;5052693;28;20044;-74
2023/03/05 08:34:46;;;;;;;0.20;0.20;;;1.80;99.90;;;;;;5052998;28;20100;-74
2023/03/05 08:37:11;;;;;;;0.22;0.22;;;1.70;99.90;;;;;;5052721;28;20040;-74
2023/03/05 08:39:37;;;;;;;0.20;0.20;;;1.70;99.90;;;;;;5052709;28;20506;-74
2023/03/05 08:42:03;;;;;;;0.20;0.20;;;1.70;99.90;;;;;;5052520;28;20040;-74
2023/03/05 08:44:29;;;;;;;0.20;0.20;;;1.70;99.90;;;;;;5052665;28;20037;-74
2023/03/05 08:46:54;;;;;;;0.20;0.20;;;1.60;99.90;;;;;;5052549;28;20037;-74
2023/03/05 08:49:21;;;;;;;0.20;0.20;;;1.60;99.90;;;;;;5052862;28;20036;-74
2023/03/05 08:51:47;;;;;;;0.10;0.10;;;1.60;99.90;;;;;;5052523;28;20036;-74
2023/03/05 08:54:13;;;;;;;0.10;0.10;;;1.60;99.90;;;;;;5052540;28;20021;-74
2023/03/05 08:56:38;;;;;;;0.17;0.17;;;1.70;99.90;;;;;;5052598;28;20055;-74
2023/03/05 08:59:04;;;;;;;0.20;0.20;;;1.90;99.90;;;;;;5034634;28;20031;-74
2023/03/05 09:01:30;;;;;;;0.20;0.20;;;2.20;99.90;;;;;;5052476;28;20098;-74
2023/03/05 09:03:58;;;;;;;0.17;0.17;;;2.40;99.90;;;;;;5052411;28;20021;-74
2023/03/05 09:06:23;;;;;;;0.20;0.20;;;2.50;99.90;;;;;;5052383;28;20032;-74
2023/03/05 09:08:49;;;;;;;0.20;0.20;;;2.70;99.90;;;;;;5052456;28;20393;-74
2023/03/05 09:11:15;;;;;;;0.20;0.20;;;2.90;99.90;;;;;;5052715;28;20056;-74
2023/03/05 09:13:41;;;;;;;0.20;0.20;;;3.00;99.90;;;;;;5052347;28;20049;-74
2023/03/05 09:16:10;;;;;;;0.20;0.20;;;3.10;99.90;;;;;;5055251;28;20397;-74
2023/03/05 09:18:36;;;;;;;0.20;0.20;;;3.20;99.90;;;;;;5056232;28;20025;-74
2023/03/05 09:21:10;;;;;;;0.20;0.20;;;3.50;99.90;;;;;;5055899;28;20029;-74
2023/03/05 09:23:36;;;;;;;0.20;0.20;;;3.90;99.90;;;;;;5055861;28;20036;-74
2023/03/05 09:26:04;;;;;;;0.10;0.10;;;4.30;99.90;;;;;;5056014;28;20385;-74
2023/03/05 09:28:30;;;;;;;0.22;0.22;;;4.30;99.90;;;;;;5055742;28;20021;-74
2023/03/05 09:30:56;;;;;;;0.10;0.10;;;4.20;99.90;;;;;;5055678;28;20025;-74
2023/03/05 09:33:22;;;;;;;0.20;0.20;;;4.20;99.90;;;;;;5038146;28;20045;-74
2023/03/05 09:35:48;;;;;;;0.25;0.25;;;4.40;99.90;;;;;;5055614;28;20027;-74
2023/03/05 09:38:13;;;;;;;0.20;0.20;;;4.60;99.90;;;;;;5055571;28;20100;-73
2023/03/05 09:41:06;;;;;;;0.20;0.20;;;4.50;99.90;;;;;;5055745;28;20021;-73
2023/03/05 09:44:11;;;;;;;0.20;0.20;;;4.10;99.90;;;;;;5112972;22;20087;-74
2023/03/05 09:46:45;;;;;;;0.20;0.20;;;3.50;99.90;;;;;;5056069;28;20103;-74
2023/03/05 09:49:38;;;;;;;0.10;0.10;;;3.40;99.90;;;;;;5037721;28;20092;-74
2023/03/05 09:52:14;;;;;;;0.20;0.20;;;3.40;99.90;;;;;;5055709;28;20474;-75
2023/03/05 09:54:44;;;;;;;0.20;0.20;;;3.30;99.90;;;;;;5037647;28;20394;-74
2023/03/05 09:57:24;;;;;;;0.20;0.20;;;3.40;99.90;;;;;;5055345;28;20429;-74
2023/03/05 09:59:57;;;;;;;0.20;0.20;;;3.50;99.90;;;;;;5037440;28;20036;-74
2023/03/05 10:02:28;;;;;;;0.28;0.28;;;3.30;99.90;;;;;;5055903;28;20024;-74
2023/03/05 10:05:01;;;;;;;0.20;0.20;;;3.10;99.90;;;;;;5055497;28;20029;-74
2023/03/05 10:07:30;;;;;;;0.20;0.20;;;3.10;99.90;;;;;;5037368;28;20171;-74
2023/03/05 10:10:08;;;;;;;0.20;0.20;;;3.20;99.90;;;;;;5055147;28;20028;-74
2023/03/05 10:12:49;;;;;;;0.20;0.20;;;3.20;99.90;;;;;;5055259;28;20025;-74
2023/03/05 10:15:27;;;;;;;0.20;0.20;;;3.10;99.90;;;;;;5055086;28;20100;-74
2023/03/05 10:17:54;;;;;;;0.20;0.20;;;3.20;99.90;;;;;;5037246;28;20035;-74
2023/03/05 10:20:41;;;;;;;0.20;0.20;;;3.50;99.90;;;;;;5055106;28;20025;-74
2023/03/05 10:23:07;;;;;;;0.20;0.20;;;3.90;99.90;;;;;;5055628;28;20029;-74
2023/03/05 10:26:00;;;;;;;0.15;0.15;;;4.40;99.90;;;;;;5054643;28;20029;-74
2023/03/05 10:28:56;;;;;;;0.22;0.22;;;5.00;99.90;;;;;;5054563;28;20086;-74
2023/03/05 10:31:50;;;;;;;0.20;0.20;;;5.50;99.90;;;;;;5036743;28;20513;-74
2023/03/05 10:34:34;;;;;;;0.10;0.10;;;5.60;99.90;;;;;;5054721;28;20029;-74
2023/03/05 10:37:11;;;;;;;0.20;0.20;;;5.40;99.90;;;;;;5054527;28;20017;-74
2023/03/05 10:39:48;;;;;;;0.25;0.25;;;5.00;99.90;;;;;;5055124;28;20116;-74
2023/03/05 10:42:35;;;;;;;0.20;0.20;;;5.20;99.90;;;;;;5054350;28;20082;-74
2023/03/05 10:45:17;;;;;;;0.20;0.20;;;5.40;99.90;;;;;;5054725;28;20025;-74
2023/03/05 10:47:56;;;;;;;0.13;0.13;;;5.40;99.90;;;;;;5036390;28;20409;-74
2023/03/05 10:50:27;;;;;;;0.20;0.20;;;5.50;99.90;;;;;;5054387;28;20107;-74
2023/03/05 10:53:09;;;;;;;0.17;0.17;;;5.80;99.90;;;;;;5054494;28;20029;-74
2023/03/05 10:55:35;;;;;;;0.20;0.20;;;5.70;99.90;;;;;;5054533;28;20072;-74
2023/03/05 10:58:09;;;;;;;0.10;0.10;;;5.60;99.90;;;;;;5054591;28;20498;-73
2023/03/05 11:00:35;;;;;;;0.20;0.20;;;5.30;99.90;;;;;;5057054;28;20029;-73
2023/03/05 11:03:06;;;;;;;0.30;0.30;;;5.00;99.90;;;;;;5038778;28;20032;-73
2023/03/05 11:05:38;;;;;;;0.10;0.10;;;4.80;99.90;;;;;;5038166;28;20035;-73
2023/03/05 11:08:22;;;;;;;0.20;0.20;;;4.50;99.90;;;;;;5036435;28;20029;-74
2023/03/05 11:11:09;;;;;;;0.30;0.30;;;4.50;99.90;;;;;;5035983;28;20071;-74
2023/03/05 11:14:30;;;;;;;0.30;0.30;;;4.90;99.90;;;;;;5035935;28;20021;-74
2023/03/05 11:16:56;;;;;;;0.20;0.20;;;5.30;99.90;;;;;;5012637;28;20090;-74
2023/03/05 11:19:32;;;;;;;0.20;0.20;;;5.60;99.90;;;;;;5051049;28;20041;-74
2023/03/05 11:22:13;;;;;;;0.20;0.20;;;5.50;99.90;;;;;;5053485;28;20029;-74
2023/03/05 11:24:40;;;;;;;0.20;0.20;;;5.80;99.90;;;;;;5035798;28;20040;-74
2023/03/05 11:27:21;;;;;;;0.20;0.20;;;5.90;99.90;;;;;;5053496;28;20505;-74
2023/03/05 11:29:48;;;;;;;0.30;0.30;;;6.20;99.90;;;;;;5035751;28;20501;-74
2023/03/05 11:32:26;;;;;;;0.13;0.13;;;6.30;99.90;;;;;;5053353;28;20567;-74
2023/03/05 11:34:52;;;;;;;0.28;0.28;;;6.30;99.90;;;;;;5054135;28;20029;-74
2023/03/05 11:37:26;;;;;;;0.30;0.30;;;6.60;99.90;;;;;;5053732;28;20436;-74
2023/03/05 11:40:23;;;;;;;0.20;0.20;;;6.90;99.90;;;;;;5053476;28;20032;-74
2023/03/05 11:42:57;;;;;;;0.20;0.20;;;6.70;99.90;;;;;;5049212;28;20129;-74
2023/03/05 11:45:24;;;;;;;0.20;0.20;;;6.20;99.90;;;;;;5053548;28;20425;-74
2023/03/05 11:47:52;;;;;;;0.20;0.20;;;5.80;99.90;;;;;;5053123;28;20086;-74
2023/03/05 11:50:32;;;;;;;0.20;0.20;;;5.20;99.90;;;;;;5053315;28;20040;-74
2023/03/05 11:53:03;;;;;;;0.20;0.20;;;4.50;99.90;;;;;;5053272;28;20143;-74
2023/03/05 11:55:40;;;;;;;0.20;0.20;;;4.40;99.90;;;;;;5053600;28;20479;-74
2023/03/05 11:58:45;;;;;;;0.15;0.15;;;4.40;99.90;;;;;;5053184;28;20090;-74
2023/03/05 12:01:17;;;;;;;0.20;0.20;;;4.30;99.90;;;;;;5035245;28;20028;-74
2023/03/05 12:03:43;;;;;;;0.20;0.20;;;4.30;99.90;;;;;;5052947;28;20112;-74
2023/03/05 12:06:14;;;;;;;0.30;0.30;;;4.30;99.90;;;;;;5053027;28;20486;-74
2023/03/05 12:08:43;;;;;;;0.20;0.20;;;4.30;99.90;;;;;;5053402;28;20382;-74
2023/03/05 12:11:17;;;;;;;0.20;0.20;;;4.30;99.90;;;;;;5035244;28;20029;-74
2023/03/05 12:13:47;;;;;;;0.30;0.30;;;4.30;99.90;;;;;;5053103;28;20024;-74
2023/03/05 12:16:44;;;;;;;0.20;0.20;;;4.30;99.90;;;;;;5053489;28;20021;-74
2023/03/05 12:19:33;;;;;;;0.10;0.10;;;4.30;99.90;;;;;;5035324;28;20029;-74
2023/03/05 12:21:59;;;;;;;0.20;0.20;;;4.40;99.90;;;;;;5035775;28;20025;-74
2023/03/05 12:24:24;;;;;;;0.22;0.22;;;4.50;99.90;;;;;;5053367;28;20025;-74
2023/03/05 12:27:04;;;;;;;0.20;0.20;;;4.50;99.90;;;;;;5052884;28;20025;-74
2023/03/05 12:29:46;;;;;;;0.20;0.20;;;4.60;99.90;;;;;;5053016;28;20032;-74
2023/03/05 12:32:21;;;;;;;0.20;0.20;;;4.70;99.90;;;;;;5035365;28;20025;-74
2023/03/05 12:35:04;;;;;;;0.10;0.10;;;4.60;99.90;;;;;;5053156;28;20032;-74
2023/03/05 12:37:30;;;;;;;0.20;0.20;;;4.50;99.90;;;;;;5053129;28;20025;-74
2023/03/05 12:39:59;;;;;;;0.20;0.20;;;4.50;99.90;;;;;;5034964;28;20267;-74
2023/03/05 12:42:53;;;;;;;0.28;0.28;;;4.40;99.90;;;;;;5035147;28;20517;-74
2023/03/05 12:45:25;;;;;;;0.20;0.20;;;4.40;99.90;;;;;;5053174;28;20432;-74
2023/03/05 12:47:56;;;;;;;0.15;0.15;;;4.40;99.90;;;;;;5052924;28;20478;-74
2023/03/05 12:50:28;;;;;;;0.15;0.15;;;4.60;99.90;;;;;;5054922;28;20025;-74
2023/03/05 12:53:11;;;;;;;0.30;0.30;;;4.80;99.90;;;;;;5056665;28;20021;-74
2023/03/05 12:55:46;;;;;;;0.20;0.20;;;5.10;99.90;;;;;;5056727;28;20025;-74
2023/03/05 12:58:19;;;;;;;0.20;0.20;;;5.20;99.90;;;;;;5038985;28;20056;-74
2023/03/05 13:00:48;;;;;;;0.20;0.20;;;5.20;99.90;;;;;;5056712;28;20103;-74
2023/03/05 13:03:44;;;;;;;0.10;0.10;;;5.20;99.90;;;;;;5038480;28;20025;-74
2023/03/05 13:06:34;;;;;;;0.20;0.20;;;5.20;99.90;;;;;;5053018;28;20061;-74
2023/03/05 13:09:06;;;;;;;0.20;0.20;;;5.10;99.90;;;;;;5056379;28;20067;-74